Pagina principale
METAR-TAF:

METAR-TAF

Aeroporti :

Selebi-Phikwe, Botswana

latitudine: 22-03-19S, longitudine: 027-49-13E, altezza: 892 m

Osservazione

Il bollettino è stato emesso 8 ore e 56 minuti fa, alle 18:00 UTC
Vento 10 kt da est/sud-est
Temperature 21°C
Umidità 88%
Pressione 1017 hPa
Visibilità 10 km o più
Cielo coperto ad un'altezza di 2000 ft

METAR: FBSP 231800Z 11010KT 9999 OVC020 21/19 Q1017

Ora: 04:56 (02:56 UTC)

Previsione

Il bollettino è stato emesso 14 ore e 56 minuti fa, alle 12:00 UTC
Previsione valida dal 23 alle 15 UTC al 23 alle 24 UTC
Vento 7 kt da est/sud-est
Visibilità 10 km o più
Nubi sparse ad un'altezza di 2500 ft
Poco nuvoloso ad un'altezza di 3500 ft, Cumulonembo.
Probabilità 30% :
Temporaneamente
dal 23 alle 15 UTC al 23 alle 18 UTC
temporale, pioggia

TAF: FBSP 231200Z 2315/2324 12007KT 9999 SCT025 FEW035CB PROB30 TEMPO 2315/2318 TSRA

Osservazioni e previsioni meteorologiche di più di 4000 aeroporti (messaggi METAR e TAF).

Le stazioni disponibili sono rappresentate dai dischi gialli e rossi sulla carta.

Puntare il mouse per vedere il nome della stazione.

Clicca sopra per visualizzare le osservazioni e previsioni meteorologiche.

Per cambiare la mappa : fare clic sui pulsanti verdi con una croce nera per ingrandire, il pulsante verde con un trattino per diminuire, o sulla freccia verde per le mappe adiacenti.


METAR-TAF: